createdAt,value
2019-02-09T04:03:07.202Z,97.10
2019-02-09T04:05:35.771Z,97.00
2019-02-09T04:08:04.345Z,97.00
2019-02-09T04:10:33.223Z,96.80
2019-02-09T04:13:01.798Z,96.90
2019-02-09T04:15:30.379Z,97.00
2019-02-09T04:17:58.975Z,96.90
2019-02-09T04:20:27.549Z,96.90
2019-02-09T04:22:56.126Z,97.30
2019-02-09T04:25:24.843Z,97.20
2019-02-09T04:27:53.406Z,96.80
2019-02-09T04:30:27.369Z,96.90
2019-02-09T04:32:56.042Z,96.80
2019-02-09T04:35:24.686Z,96.70
2019-02-09T04:37:53.354Z,96.80
2019-02-09T04:40:23.986Z,96.80
2019-02-09T04:42:52.553Z,96.80
2019-02-09T04:45:21.489Z,96.90
2019-02-09T04:47:50.089Z,96.90
2019-02-09T04:50:18.667Z,96.80
2019-02-09T04:52:47.246Z,96.80
2019-02-09T04:55:20.098Z,96.70
2019-02-09T04:57:48.669Z,96.80
2019-02-09T05:00:25.129Z,96.90
2019-02-09T05:02:53.705Z,96.90
2019-02-09T05:05:22.309Z,96.80
2019-02-09T05:07:50.923Z,97.00
2019-02-09T05:10:19.959Z,97.00
2019-02-09T05:12:48.877Z,96.90
2019-02-09T05:15:17.574Z,96.90
2019-02-09T05:17:46.157Z,96.90
2019-02-09T05:20:19.305Z,97.00
2019-02-09T05:22:47.897Z,97.00
2019-02-09T05:25:16.475Z,96.90
2019-02-09T05:27:45.041Z,96.90
2019-02-09T05:30:16.136Z,97.00
2019-02-09T05:32:44.709Z,97.00
2019-02-09T05:35:13.307Z,97.10
2019-02-09T05:37:42.191Z,97.20
2019-02-09T05:40:12.166Z,97.20
2019-02-09T05:42:40.737Z,97.00
2019-02-09T05:45:12.024Z,97.10
2019-02-09T05:47:40.598Z,97.10
2019-02-09T05:50:10.799Z,97.20
2019-02-09T05:52:39.415Z,97.30
2019-02-09T05:55:08.481Z,97.50
2019-02-09T05:57:37.054Z,97.50
2019-02-09T06:00:06.998Z,97.50
2019-02-09T06:02:35.569Z,97.40
2019-02-09T06:05:08.006Z,97.40
2019-02-09T06:07:36.639Z,97.50
2019-02-09T06:10:08.072Z,97.50
2019-02-09T06:12:36.655Z,97.60
2019-02-09T06:15:05.817Z,97.50
2019-02-09T06:17:34.397Z,97.50
2019-02-09T06:20:03.033Z,97.40
2019-02-09T06:22:31.642Z,97.50
2019-02-09T06:25:00.261Z,97.90
2019-02-09T06:27:28.874Z,97.70
2019-02-09T06:29:57.474Z,97.60
2019-02-09T06:32:26.045Z,97.70
2019-02-09T06:34:54.622Z,97.80
2019-02-09T06:37:23.238Z,97.90
2019-02-09T06:39:51.802Z,98.00
2019-02-09T06:42:20.505Z,98.00
2019-02-09T06:44:49.110Z,98.00
2019-02-09T06:47:17.688Z,97.80
2019-02-09T06:49:46.267Z,98.00
2019-02-09T06:52:14.865Z,98.00
2019-02-09T06:54:43.446Z,98.10
2019-02-09T06:57:12.022Z,98.10
2019-02-09T06:59:40.629Z,98.20
2019-02-09T07:02:09.282Z,98.20
2019-02-09T07:04:37.865Z,98.00
2019-02-09T07:07:06.462Z,97.90
2019-02-09T07:09:35.073Z,98.00
2019-02-09T07:12:03.653Z,97.90
2019-02-09T07:14:32.289Z,97.80
2019-02-09T07:17:00.913Z,97.70
2019-02-09T07:19:29.565Z,97.60
2019-02-09T07:21:58.185Z,97.20
2019-02-09T07:24:26.853Z,97.00
2019-02-09T07:26:55.453Z,97.00
2019-02-09T07:29:24.045Z,96.90
2019-02-09T07:31:56.539Z,96.70
2019-02-09T07:34:22.923Z,96.50
2019-02-09T07:36:51.813Z,96.40
2019-02-09T07:39:20.486Z,96.50
2019-02-09T07:41:49.061Z,96.60
2019-02-09T07:44:17.667Z,96.50
2019-02-09T07:46:46.244Z,96.30
2019-02-09T07:49:15.209Z,96.20
2019-02-09T07:51:43.807Z,96.10
2019-02-09T07:54:12.381Z,95.90
2019-02-09T07:56:40.961Z,95.90
2019-02-09T07:59:09.569Z,95.90
2019-02-09T08:01:38.141Z,95.60
2019-02-09T08:04:06.709Z,93.80
2019-02-09T08:06:35.313Z,88.60
2019-02-09T08:09:05.185Z,81.00
2019-02-09T08:11:33.813Z,74.40
2019-02-09T08:14:02.393Z,69.50
2019-02-09T08:16:31.015Z,65.40
2019-02-09T08:18:59.585Z,60.70
2019-02-09T08:21:28.181Z,58.70
2019-02-09T08:23:56.758Z,57.30
2019-02-09T08:26:25.333Z,55.40
2019-02-09T08:28:53.937Z,55.90
2019-02-09T08:31:22.509Z,56.00
2019-02-09T08:33:51.105Z,56.90
2019-02-09T08:36:19.918Z,57.40
2019-02-09T08:38:48.484Z,58.90
2019-02-09T08:41:17.122Z,62.40
2019-02-09T08:43:45.712Z,65.70
2019-02-09T08:46:17.151Z,68.80
2019-02-09T08:48:45.738Z,70.20
2019-02-09T08:51:15.213Z,71.30
2019-02-09T08:53:43.785Z,72.50
2019-02-09T08:56:12.353Z,73.80
2019-02-09T08:58:40.969Z,75.00
2019-02-09T09:01:09.550Z,76.60
2019-02-09T09:03:38.121Z,77.50
2019-02-09T09:06:06.713Z,79.40
2019-02-09T09:08:35.288Z,81.00
2019-02-09T09:11:03.857Z,82.20
2019-02-09T09:13:33.338Z,82.60
2019-02-09T09:16:05.608Z,83.60
2019-02-09T09:18:34.177Z,84.60
2019-02-09T09:21:03.630Z,84.90
2019-02-09T09:23:32.194Z,85.30
2019-02-09T09:26:00.805Z,77.50
2019-02-09T09:28:29.406Z,67.10
2019-02-09T09:30:58.081Z,61.70
2019-02-09T09:33:26.645Z,62.70
2019-02-09T09:35:55.261Z,64.70
2019-02-09T09:38:23.933Z,61.50
2019-02-09T09:40:52.508Z,55.70
2019-02-09T09:43:21.098Z,52.50
2019-02-09T09:45:49.665Z,49.80
2019-02-09T09:48:18.745Z,50.40
2019-02-09T09:50:47.324Z,54.70
2019-02-09T09:53:15.897Z,57.10
2019-02-09T09:55:44.490Z,62.00
2019-02-09T09:58:13.057Z,64.90
2019-02-09T10:00:41.624Z,66.00
2019-02-09T10:03:10.228Z,64.30
2019-02-09T10:05:38.801Z,60.40
2019-02-09T10:08:07.385Z,56.50
2019-02-09T10:10:35.985Z,53.40
2019-02-09T10:13:05.180Z,53.70
2019-02-09T10:15:33.832Z,53.50
2019-02-09T10:18:02.389Z,57.50
2019-02-09T10:20:30.957Z,55.30
2019-02-09T10:22:59.557Z,56.00
2019-02-09T10:25:28.121Z,56.70
2019-02-09T10:27:56.723Z,56.50
2019-02-09T10:30:26.810Z,55.60
2019-02-09T10:32:55.421Z,54.70
2019-02-09T10:35:24.145Z,54.60
2019-02-09T10:37:52.799Z,53.30
2019-02-09T10:40:26.547Z,54.00
2019-02-09T10:42:55.209Z,54.40
2019-02-09T10:45:25.345Z,54.60
2019-02-09T10:47:54.281Z,53.70
2019-02-09T10:50:28.250Z,53.80
2019-02-09T10:52:56.812Z,54.20
2019-02-09T10:55:25.410Z,53.50
2019-02-09T10:57:53.982Z,54.00
2019-02-09T11:00:28.216Z,53.80
2019-02-09T11:02:56.850Z,53.80
2019-02-09T11:05:25.417Z,54.40
2019-02-09T11:07:54.041Z,53.30
2019-02-09T11:10:22.657Z,52.10
2019-02-09T11:12:51.673Z,53.90
2019-02-09T11:15:20.249Z,55.60
2019-02-09T11:17:48.849Z,58.60
2019-02-09T11:20:18.641Z,60.30
2019-02-09T11:22:47.330Z,62.60
2019-02-09T11:25:16.829Z,62.70
2019-02-09T11:27:45.401Z,63.00
2019-02-09T11:30:19.888Z,60.80
2019-02-09T11:32:48.774Z,57.90
2019-02-09T11:35:17.401Z,57.00
2019-02-09T11:37:45.994Z,57.60
2019-02-09T11:40:15.781Z,57.50
2019-02-09T11:42:44.385Z,57.50
2019-02-09T11:45:16.433Z,58.50
2019-02-09T11:47:45.065Z,58.30
2019-02-09T11:50:13.826Z,58.90
2019-02-09T11:52:42.405Z,59.50
2019-02-09T11:55:11.310Z,59.90
2019-02-09T11:57:39.962Z,59.80
2019-02-09T12:00:37.575Z,60.60
2019-02-09T12:03:14.551Z,60.50
2019-02-09T12:05:36.498Z,62.60
2019-02-09T12:08:05.600Z,64.10
2019-02-09T12:10:34.173Z,64.40
2019-02-09T12:13:02.765Z,64.20
2019-02-09T12:15:32.190Z,64.90
2019-02-09T12:18:01.005Z,65.40
2019-02-09T12:20:29.634Z,65.40
2019-02-09T12:22:58.206Z,65.40
2019-02-09T12:25:29.011Z,65.30
2019-02-09T12:27:57.573Z,65.60
2019-02-09T12:30:27.473Z,66.20
2019-02-09T12:32:56.078Z,66.80
2019-02-09T12:35:24.698Z,67.20
2019-02-09T12:37:53.305Z,67.80
2019-02-09T12:40:32.249Z,67.00
2019-02-09T12:43:00.932Z,65.60
2019-02-09T12:45:30.241Z,66.20
2019-02-09T12:47:59.031Z,65.90
2019-02-09T12:50:27.878Z,66.70
2019-02-09T12:52:56.531Z,65.50
2019-02-09T12:55:25.137Z,65.50
2019-02-09T12:57:53.768Z,65.40
2019-02-09T13:00:26.989Z,66.60
2019-02-09T13:02:56.258Z,66.60
2019-02-09T13:05:24.830Z,66.40
2019-02-09T13:07:53.516Z,67.00
2019-02-09T13:10:22.073Z,66.60
2019-02-09T13:12:50.647Z,67.30
2019-02-09T13:15:24.579Z,67.10
2019-02-09T13:17:53.338Z,67.10
2019-02-09T13:20:23.518Z,67.80
2019-02-09T13:22:52.113Z,67.40
2019-02-09T13:25:20.684Z,67.90
2019-02-09T13:27:49.249Z,67.20
2019-02-09T13:30:20.433Z,67.90
2019-02-09T13:32:49.005Z,68.30
2019-02-09T13:35:17.597Z,67.70
2019-02-09T13:37:46.201Z,68.00
2019-02-09T13:40:16.062Z,68.50
2019-02-09T13:42:44.701Z,68.60
2019-02-09T13:45:43.056Z,69.10
2019-02-09T13:48:11.634Z,69.70
2019-02-09T13:50:40.280Z,69.60
2019-02-09T13:53:09.414Z,69.50
2019-02-09T13:55:37.985Z,70.10
2019-02-09T13:58:06.666Z,70.30
2019-02-09T14:00:35.286Z,69.90
2019-02-09T14:03:03.934Z,70.10
2019-02-09T14:05:32.510Z,70.20
2019-02-09T14:08:01.083Z,70.80
2019-02-09T14:10:29.853Z,70.70
2019-02-09T14:12:58.427Z,70.50
2019-02-09T14:15:29.123Z,70.40
2019-02-09T14:17:59.137Z,70.60
2019-02-09T14:20:27.731Z,70.60
2019-02-09T14:22:56.333Z,70.70
2019-02-09T14:25:24.913Z,71.70
2019-02-09T14:27:56.520Z,70.60
2019-02-09T14:30:26.024Z,71.10
2019-02-09T14:32:54.585Z,71.20
2019-02-09T14:35:23.431Z,71.60
2019-02-09T14:37:52.081Z,71.80
2019-02-09T14:40:28.374Z,71.30
2019-02-09T14:42:56.965Z,71.40
2019-02-09T14:45:31.040Z,71.80
2019-02-09T14:47:59.899Z,72.30
2019-02-09T14:50:28.469Z,72.00
2019-02-09T14:52:57.065Z,71.90
2019-02-09T14:55:29.970Z,70.60
2019-02-09T14:57:58.538Z,70.90
2019-02-09T15:00:33.017Z,71.10
2019-02-09T15:03:01.590Z,70.90
2019-02-09T15:05:30.187Z,70.60
2019-02-09T15:07:58.761Z,69.50
2019-02-09T15:10:27.325Z,69.30
2019-02-09T15:12:55.934Z,69.90
2019-02-09T15:15:27.451Z,70.00
2019-02-09T15:17:56.053Z,70.10
2019-02-09T15:20:27.477Z,70.00
2019-02-09T15:22:56.144Z,69.50
2019-02-09T15:25:24.754Z,69.80
2019-02-09T15:27:53.320Z,69.60
2019-02-09T15:30:23.574Z,70.40
2019-02-09T15:32:52.153Z,70.10
2019-02-09T15:35:20.725Z,70.30
2019-02-09T15:37:49.318Z,70.70
2019-02-09T15:40:18.604Z,71.10
2019-02-09T15:43:38.589Z,70.90
2019-02-09T15:46:07.167Z,71.40
2019-02-09T15:48:35.742Z,71.50
2019-02-09T15:51:04.311Z,71.70
2019-02-09T15:53:32.872Z,72.20
2019-02-09T15:56:01.505Z,72.30
2019-02-09T15:58:30.094Z,72.70
2019-02-09T16:00:58.778Z,72.30
2019-02-09T16:03:27.365Z,73.00
2019-02-09T16:05:55.961Z,73.60
2019-02-09T16:08:24.525Z,73.30
2019-02-09T16:10:53.093Z,74.10
2019-02-09T16:13:21.686Z,74.80
2019-02-09T16:15:50.522Z,75.10
2019-02-09T16:18:19.122Z,75.40
2019-02-09T16:20:47.686Z,76.20
2019-02-09T16:23:16.281Z,76.70
2019-02-09T16:25:44.879Z,77.30
2019-02-09T16:28:13.451Z,76.90
2019-02-09T16:30:42.047Z,76.70
2019-02-09T16:33:10.618Z,76.70
2019-02-09T16:35:39.298Z,76.70
2019-02-09T16:38:07.893Z,77.10
2019-02-09T16:40:36.681Z,77.40
2019-02-09T16:43:05.693Z,78.40
2019-02-09T16:45:34.658Z,78.60
2019-02-09T16:48:03.353Z,79.50
2019-02-09T16:50:32.050Z,79.80
2019-02-09T16:53:00.879Z,79.70
2019-02-09T16:55:29.797Z,80.00
2019-02-09T16:57:59.105Z,80.50
2019-02-09T17:00:35.350Z,81.40
2019-02-09T17:03:04.021Z,81.40
2019-02-09T17:05:32.703Z,81.40
2019-02-09T17:08:02.193Z,81.90
2019-02-09T17:10:31.419Z,82.10
2019-02-09T17:13:01.113Z,82.30
2019-02-09T17:15:30.640Z,82.50
2019-02-09T17:18:00.383Z,82.60
2019-02-09T17:20:29.495Z,82.60
2019-02-09T17:22:58.241Z,83.30
2019-02-09T17:25:26.838Z,83.30
2019-02-09T17:27:55.440Z,83.90
2019-02-09T17:30:25.365Z,84.60
2019-02-09T17:32:53.957Z,84.60
2019-02-09T17:35:22.575Z,85.30
2019-02-09T17:37:51.176Z,85.90
2019-02-09T17:40:22.062Z,86.20
2019-02-09T17:42:53.386Z,86.40
2019-02-09T17:45:26.418Z,87.20
2019-02-09T17:47:54.983Z,88.10
2019-02-09T17:50:23.549Z,88.50
2019-02-09T17:52:52.143Z,88.60
2019-02-09T17:55:20.733Z,89.20
2019-02-09T17:57:49.334Z,89.30
2019-02-09T18:00:20.714Z,89.50
2019-02-09T18:02:49.398Z,89.30
2019-02-09T18:05:18.113Z,89.20
2019-02-09T18:07:46.772Z,89.30
2019-02-09T18:10:15.921Z,88.90
2019-02-09T18:12:44.554Z,89.60
2019-02-09T18:15:14.714Z,89.80
2019-02-09T18:17:43.753Z,90.10
2019-02-09T18:20:13.213Z,90.20
2019-02-09T18:22:42.138Z,90.50
2019-02-09T18:25:12.221Z,90.60
2019-02-09T18:27:40.789Z,90.60
2019-02-09T18:30:12.782Z,90.60
2019-02-09T18:32:41.401Z,90.70
2019-02-09T18:35:10.133Z,90.60
2019-02-09T18:37:38.901Z,91.00
2019-02-09T18:40:09.141Z,91.10
2019-02-09T18:42:37.733Z,91.30
2019-02-09T18:45:06.933Z,91.50
2019-02-09T18:47:37.505Z,91.50
2019-02-09T18:50:06.389Z,91.90
2019-02-09T18:52:34.968Z,91.50
2019-02-09T18:55:03.601Z,91.80
2019-02-09T18:57:35.394Z,91.60
2019-02-09T19:00:04.617Z,91.60
2019-02-09T19:02:38.583Z,91.40
2019-02-09T19:05:07.141Z,91.40
2019-02-09T19:07:35.881Z,91.70
2019-02-09T19:10:06.161Z,91.70
2019-02-09T19:12:35.413Z,92.00
2019-02-09T19:15:05.637Z,91.70
2019-02-09T19:17:34.217Z,91.80
2019-02-09T19:20:02.837Z,91.70
2019-02-09T19:22:31.417Z,91.90
2019-02-09T19:24:59.997Z,91.80
2019-02-09T19:27:28.594Z,91.80
2019-02-09T19:29:57.441Z,91.60
2019-02-09T19:32:26.070Z,91.40
2019-02-09T19:34:54.706Z,91.40
2019-02-09T19:37:24.940Z,91.30
2019-02-09T19:39:53.621Z,91.50
2019-02-09T19:42:22.190Z,91.40
2019-02-09T19:44:50.769Z,91.80
2019-02-09T19:47:19.366Z,91.40
2019-02-09T19:49:48.384Z,91.50
2019-02-09T19:52:16.962Z,91.60
2019-02-09T19:54:45.597Z,91.50
2019-02-09T19:57:14.196Z,91.60
2019-02-09T19:59:42.909Z,91.60
2019-02-09T20:02:11.519Z,91.60
2019-02-09T20:04:40.095Z,91.60
2019-02-09T20:07:08.936Z,91.70
2019-02-09T20:09:37.551Z,91.80
2019-02-09T20:12:06.233Z,92.00
2019-02-09T20:14:34.886Z,92.00
2019-02-09T20:17:03.453Z,92.00
2019-02-09T20:19:32.026Z,92.00
2019-02-09T20:22:00.614Z,91.90
2019-02-09T20:24:29.241Z,91.90
2019-02-09T20:26:57.841Z,92.00
2019-02-09T20:29:26.441Z,91.90
2019-02-09T20:31:55.005Z,91.90
2019-02-09T20:34:23.710Z,92.00
2019-02-09T20:36:52.289Z,92.10
2019-02-09T20:39:21.353Z,92.30
2019-02-09T20:41:50.001Z,92.40
2019-02-09T20:44:18.816Z,92.70
2019-02-09T20:46:49.762Z,92.80
2019-02-09T20:49:18.966Z,92.90
2019-02-09T20:51:47.547Z,92.90
2019-02-09T20:54:16.777Z,92.80
2019-02-09T20:56:46.263Z,92.90
2019-02-09T20:59:15.244Z,92.90
2019-02-09T21:01:46.429Z,92.80
2019-02-09T21:04:15.567Z,92.80
2019-02-09T21:06:44.277Z,92.80
2019-02-09T21:09:12.849Z,92.80
2019-02-09T21:11:41.531Z,92.90
2019-02-09T21:14:10.131Z,92.90
2019-02-09T21:16:39.037Z,93.00
2019-02-09T21:19:07.705Z,92.90
2019-02-09T21:21:36.290Z,92.90
2019-02-09T21:24:04.886Z,93.20
2019-02-09T21:26:33.645Z,93.00
2019-02-09T21:29:02.250Z,93.00
2019-02-09T21:31:30.889Z,93.00
2019-02-09T21:33:59.593Z,93.10
2019-02-09T21:36:28.160Z,93.60
2019-02-09T21:38:57.085Z,93.40
2019-02-09T21:41:25.784Z,93.50
2019-02-09T21:43:54.353Z,94.10
2019-02-09T21:46:23.057Z,94.30
2019-02-09T21:48:52.022Z,94.50
2019-02-09T21:51:20.592Z,94.60
2019-02-09T21:53:49.186Z,94.70
2019-02-09T21:56:18.079Z,94.60
2019-02-09T21:58:46.677Z,94.50
2019-02-09T22:01:15.241Z,94.60
2019-02-09T22:03:43.818Z,94.40
2019-02-09T22:06:12.409Z,94.40
2019-02-09T22:08:40.974Z,94.40
2019-02-09T22:11:09.604Z,94.20
2019-02-09T22:13:38.217Z,94.00
2019-02-09T22:16:06.790Z,93.90
2019-02-09T22:18:35.452Z,94.00
2019-02-09T22:21:04.117Z,94.00
2019-02-09T22:23:32.718Z,94.00
2019-02-09T22:26:01.297Z,93.80
2019-02-09T22:28:29.850Z,93.60
2019-02-09T22:30:58.494Z,93.50
2019-02-09T22:33:27.105Z,93.50
2019-02-09T22:35:59.986Z,93.50
2019-02-09T22:38:26.426Z,93.50
2019-02-09T22:40:55.139Z,93.40
2019-02-09T22:43:24.137Z,93.50
2019-02-09T22:45:52.714Z,93.50
2019-02-09T22:48:21.317Z,93.60
2019-02-09T22:50:49.893Z,93.70
2019-02-09T22:53:18.458Z,93.60
2019-02-09T22:55:47.049Z,93.60
2019-02-09T22:58:15.618Z,93.70
